sensor_id;sensor_type;location;lat;lon;timestamp;P1;durP1;ratioP1;P2;durP2;ratioP2
44816;SDS011;30529;53.570;9.964;2023-08-07T00:00:57;2.20;;;1.43;;
44816;SDS011;30529;53.570;9.964;2023-08-07T00:03:23;2.90;;;1.60;;
44816;SDS011;30529;53.570;9.964;2023-08-07T00:05:49;2.10;;;1.37;;
44816;SDS011;30529;53.570;9.964;2023-08-07T00:08:17;3.03;;;1.50;;
44816;SDS011;30529;53.570;9.964;2023-08-07T00:10:43;3.40;;;1.70;;
44816;SDS011;30529;53.570;9.964;2023-08-07T00:13:09;5.63;;;1.60;;
44816;SDS011;30529;53.570;9.964;2023-08-07T00:15:38;10.00;;;1.60;;
44816;SDS011;30529;53.570;9.964;2023-08-07T00:18:05;2.90;;;1.40;;
44816;SDS011;30529;53.570;9.964;2023-08-07T00:20:31;2.07;;;1.33;;
44816;SDS011;30529;53.570;9.964;2023-08-07T00:22:56;3.40;;;2.00;;
44816;SDS011;30529;53.570;9.964;2023-08-07T00:25:22;1.70;;;1.10;;
44816;SDS011;30529;53.570;9.964;2023-08-07T00:27:49;3.37;;;1.30;;
44816;SDS011;30529;53.570;9.964;2023-08-07T00:30:15;2.37;;;1.53;;
44816;SDS011;30529;53.570;9.964;2023-08-07T00:32:41;1.63;;;1.10;;
44816;SDS011;30529;53.570;9.964;2023-08-07T00:35:07;2.83;;;1.37;;
44816;SDS011;30529;53.570;9.964;2023-08-07T00:37:36;1.83;;;1.20;;
44816;SDS011;30529;53.570;9.964;2023-08-07T00:40:02;2.33;;;1.17;;
44816;SDS011;30529;53.570;9.964;2023-08-07T00:42:28;2.77;;;1.40;;
44816;SDS011;30529;53.570;9.964;2023-08-07T00:44:54;1.37;;;1.20;;
44816;SDS011;30529;53.570;9.964;2023-08-07T00:47:20;2.23;;;1.50;;
44816;SDS011;30529;53.570;9.964;2023-08-07T00:49:47;4.53;;;1.50;;
44816;SDS011;30529;53.570;9.964;2023-08-07T00:52:13;1.80;;;1.30;;
44816;SDS011;30529;53.570;9.964;2023-08-07T00:54:39;3.83;;;1.50;;
44816;SDS011;30529;53.570;9.964;2023-08-07T00:57:09;2.40;;;1.13;;
44816;SDS011;30529;53.570;9.964;2023-08-07T00:59:37;2.27;;;1.47;;
44816;SDS011;30529;53.570;9.964;2023-08-07T01:02:04;2.63;;;1.63;;
44816;SDS011;30529;53.570;9.964;2023-08-07T01:04:31;2.10;;;1.40;;
44816;SDS011;30529;53.570;9.964;2023-08-07T01:06:57;3.03;;;1.60;;
44816;SDS011;30529;53.570;9.964;2023-08-07T01:09:23;4.87;;;1.63;;
44816;SDS011;30529;53.570;9.964;2023-08-07T01:11:50;2.30;;;1.23;;
44816;SDS011;30529;53.570;9.964;2023-08-07T01:19:42;6.03;;;1.60;;
44816;SDS011;30529;53.570;9.964;2023-08-07T01:22:13;2.73;;;1.20;;
44816;SDS011;30529;53.570;9.964;2023-08-07T01:24:41;2.50;;;1.50;;
44816;SDS011;30529;53.570;9.964;2023-08-07T01:35:14;1.27;;;1.13;;
44816;SDS011;30529;53.570;9.964;2023-08-07T01:37:42;3.57;;;1.50;;
44816;SDS011;30529;53.570;9.964;2023-08-07T01:40:10;3.47;;;1.77;;
44816;SDS011;30529;53.570;9.964;2023-08-07T01:42:39;3.03;;;1.50;;
44816;SDS011;30529;53.570;9.964;2023-08-07T01:45:05;2.60;;;1.30;;
44816;SDS011;30529;53.570;9.964;2023-08-07T01:47:31;2.77;;;1.50;;
44816;SDS011;30529;53.570;9.964;2023-08-07T01:49:57;3.03;;;1.33;;
44816;SDS011;30529;53.570;9.964;2023-08-07T01:52:23;2.40;;;1.53;;
44816;SDS011;30529;53.570;9.964;2023-08-07T01:54:49;2.13;;;1.20;;
44816;SDS011;30529;53.570;9.964;2023-08-07T01:57:15;3.13;;;1.37;;
44816;SDS011;30529;53.570;9.964;2023-08-07T01:59:41;4.00;;;1.40;;
44816;SDS011;30529;53.570;9.964;2023-08-07T02:02:07;4.07;;;1.50;;
44816;SDS011;30529;53.570;9.964;2023-08-07T02:04:33;3.30;;;1.77;;
44816;SDS011;30529;53.570;9.964;2023-08-07T02:06:59;1.90;;;1.30;;
44816;SDS011;30529;53.570;9.964;2023-08-07T02:09:25;5.70;;;1.57;;
44816;SDS011;30529;53.570;9.964;2023-08-07T02:11:51;3.90;;;1.50;;
44816;SDS011;30529;53.570;9.964;2023-08-07T02:14:17;3.37;;;1.50;;
44816;SDS011;30529;53.570;9.964;2023-08-07T02:16:43;2.30;;;1.50;;
44816;SDS011;30529;53.570;9.964;2023-08-07T02:19:09;4.73;;;1.87;;
44816;SDS011;30529;53.570;9.964;2023-08-07T02:21:35;5.37;;;1.60;;
44816;SDS011;30529;53.570;9.964;2023-08-07T02:24:01;2.17;;;1.23;;
44816;SDS011;30529;53.570;9.964;2023-08-07T02:26:27;4.23;;;1.73;;
44816;SDS011;30529;53.570;9.964;2023-08-07T02:28:53;5.83;;;1.57;;
44816;SDS011;30529;53.570;9.964;2023-08-07T02:31:19;2.90;;;1.57;;
44816;SDS011;30529;53.570;9.964;2023-08-07T02:33:45;2.37;;;1.40;;
44816;SDS011;30529;53.570;9.964;2023-08-07T02:36:11;4.50;;;1.60;;
44816;SDS011;30529;53.570;9.964;2023-08-07T02:38:37;1.50;;;1.20;;
44816;SDS011;30529;53.570;9.964;2023-08-07T02:41:03;3.10;;;1.47;;
44816;SDS011;30529;53.570;9.964;2023-08-07T02:43:29;4.33;;;1.50;;
44816;SDS011;30529;53.570;9.964;2023-08-07T02:45:58;2.40;;;1.10;;
44816;SDS011;30529;53.570;9.964;2023-08-07T02:48:24;2.33;;;1.43;;
44816;SDS011;30529;53.570;9.964;2023-08-07T02:50:50;2.57;;;1.40;;
44816;SDS011;30529;53.570;9.964;2023-08-07T02:53:17;2.77;;;1.50;;
44816;SDS011;30529;53.570;9.964;2023-08-07T02:55:43;5.00;;;1.50;;
44816;SDS011;30529;53.570;9.964;2023-08-07T02:58:09;3.47;;;1.37;;
44816;SDS011;30529;53.570;9.964;2023-08-07T03:00:35;1.23;;;0.93;;
44816;SDS011;30529;53.570;9.964;2023-08-07T03:03:02;2.90;;;1.20;;
44816;SDS011;30529;53.570;9.964;2023-08-07T03:05:28;2.60;;;1.33;;
44816;SDS011;30529;53.570;9.964;2023-08-07T03:07:54;1.93;;;1.30;;
44816;SDS011;30529;53.570;9.964;2023-08-07T03:10:20;3.07;;;1.30;;
44816;SDS011;30529;53.570;9.964;2023-08-07T03:12:46;3.83;;;1.13;;
44816;SDS011;30529;53.570;9.964;2023-08-07T03:15:12;3.10;;;1.00;;
44816;SDS011;30529;53.570;9.964;2023-08-07T03:17:38;3.23;;;1.73;;
44816;SDS011;30529;53.570;9.964;2023-08-07T03:20:04;2.93;;;1.13;;
44816;SDS011;30529;53.570;9.964;2023-08-07T03:22:31;2.27;;;1.07;;
44816;SDS011;30529;53.570;9.964;2023-08-07T03:24:57;4.67;;;1.40;;
44816;SDS011;30529;53.570;9.964;2023-08-07T03:27:23;2.63;;;1.37;;
44816;SDS011;30529;53.570;9.964;2023-08-07T03:29:49;1.27;;;1.13;;
44816;SDS011;30529;53.570;9.964;2023-08-07T03:32:15;2.90;;;1.20;;
44816;SDS011;30529;53.570;9.964;2023-08-07T03:34:41;2.73;;;1.33;;
44816;SDS011;30529;53.570;9.964;2023-08-07T03:37:07;3.67;;;1.27;;
44816;SDS011;30529;53.570;9.964;2023-08-07T03:39:33;3.20;;;1.40;;
44816;SDS011;30529;53.570;9.964;2023-08-07T03:41:59;2.00;;;1.27;;
44816;SDS011;30529;53.570;9.964;2023-08-07T03:44:25;2.33;;;1.20;;
44816;SDS011;30529;53.570;9.964;2023-08-07T03:46:51;3.30;;;1.70;;
44816;SDS011;30529;53.570;9.964;2023-08-07T03:49:17;3.03;;;2.13;;
44816;SDS011;30529;53.570;9.964;2023-08-07T03:51:43;3.93;;;1.80;;
44816;SDS011;30529;53.570;9.964;2023-08-07T03:54:09;6.10;;;1.60;;
44816;SDS011;30529;53.570;9.964;2023-08-07T03:56:35;3.67;;;1.60;;
44816;SDS011;30529;53.570;9.964;2023-08-07T03:59:03;2.87;;;1.50;;
44816;SDS011;30529;53.570;9.964;2023-08-07T04:01:29;4.00;;;1.73;;
44816;SDS011;30529;53.570;9.964;2023-08-07T04:03:55;3.30;;;1.60;;
44816;SDS011;30529;53.570;9.964;2023-08-07T04:06:21;3.17;;;1.90;;
44816;SDS011;30529;53.570;9.964;2023-08-07T04:08:47;6.07;;;1.80;;
44816;SDS011;30529;53.570;9.964;2023-08-07T04:11:13;5.17;;;1.77;;
44816;SDS011;30529;53.570;9.964;2023-08-07T04:13:39;4.77;;;1.43;;
44816;SDS011;30529;53.570;9.964;2023-08-07T04:16:05;2.27;;;1.53;;
44816;SDS011;30529;53.570;9.964;2023-08-07T04:18:32;3.90;;;1.80;;
44816;SDS011;30529;53.570;9.964;2023-08-07T04:20:58;5.10;;;1.70;;
44816;SDS011;30529;53.570;9.964;2023-08-07T04:23:24;5.67;;;1.77;;
44816;SDS011;30529;53.570;9.964;2023-08-07T04:25:51;6.43;;;2.17;;
44816;SDS011;30529;53.570;9.964;2023-08-07T04:28:18;5.93;;;1.60;;
44816;SDS011;30529;53.570;9.964;2023-08-07T04:30:45;3.03;;;1.37;;
44816;SDS011;30529;53.570;9.964;2023-08-07T04:33:16;2.83;;;1.37;;
44816;SDS011;30529;53.570;9.964;2023-08-07T04:35:42;4.10;;;1.50;;
44816;SDS011;30529;53.570;9.964;2023-08-07T04:38:08;4.70;;;1.60;;
44816;SDS011;30529;53.570;9.964;2023-08-07T04:40:34;3.93;;;1.60;;
44816;SDS011;30529;53.570;9.964;2023-08-07T04:43:00;3.10;;;1.90;;
44816;SDS011;30529;53.570;9.964;2023-08-07T04:45:26;3.00;;;1.80;;
44816;SDS011;30529;53.570;9.964;2023-08-07T04:47:52;5.03;;;1.90;;
44816;SDS011;30529;53.570;9.964;2023-08-07T04:50:18;2.33;;;1.33;;
44816;SDS011;30529;53.570;9.964;2023-08-07T04:52:44;4.63;;;1.50;;
44816;SDS011;30529;53.570;9.964;2023-08-07T04:55:10;8.47;;;1.80;;
44816;SDS011;30529;53.570;9.964;2023-08-07T04:57:36;3.97;;;1.70;;
44816;SDS011;30529;53.570;9.964;2023-08-07T05:00:02;7.47;;;1.90;;
44816;SDS011;30529;53.570;9.964;2023-08-07T05:02:28;4.33;;;1.50;;
44816;SDS011;30529;53.570;9.964;2023-08-07T05:04:54;4.03;;;1.60;;
44816;SDS011;30529;53.570;9.964;2023-08-07T05:07:20;7.13;;;2.43;;
44816;SDS011;30529;53.570;9.964;2023-08-07T05:09:46;3.93;;;1.67;;
44816;SDS011;30529;53.570;9.964;2023-08-07T05:12:12;6.03;;;2.77;;
44816;SDS011;30529;53.570;9.964;2023-08-07T05:14:38;5.70;;;1.53;;
44816;SDS011;30529;53.570;9.964;2023-08-07T05:17:04;2.30;;;1.13;;
44816;SDS011;30529;53.570;9.964;2023-08-07T05:19:31;7.63;;;2.07;;
44816;SDS011;30529;53.570;9.964;2023-08-07T05:21:57;5.33;;;2.23;;
44816;SDS011;30529;53.570;9.964;2023-08-07T05:24:22;7.80;;;2.10;;
44816;SDS011;30529;53.570;9.964;2023-08-07T05:26:49;5.50;;;1.97;;
44816;SDS011;30529;53.570;9.964;2023-08-07T05:29:15;9.23;;;3.00;;
44816;SDS011;30529;53.570;9.964;2023-08-07T05:31:40;7.03;;;2.83;;
44816;SDS011;30529;53.570;9.964;2023-08-07T05:34:06;5.37;;;2.20;;
44816;SDS011;30529;53.570;9.964;2023-08-07T05:36:32;6.40;;;1.83;;
44816;SDS011;30529;53.570;9.964;2023-08-07T05:38:58;7.53;;;2.60;;
44816;SDS011;30529;53.570;9.964;2023-08-07T05:41:24;5.60;;;2.17;;
44816;SDS011;30529;53.570;9.964;2023-08-07T05:43:50;6.30;;;2.03;;
44816;SDS011;30529;53.570;9.964;2023-08-07T05:46:16;8.50;;;2.20;;
44816;SDS011;30529;53.570;9.964;2023-08-07T05:48:42;8.07;;;1.90;;
44816;SDS011;30529;53.570;9.964;2023-08-07T05:51:08;8.33;;;2.50;;
44816;SDS011;30529;53.570;9.964;2023-08-07T05:53:35;8.20;;;2.20;;
44816;SDS011;30529;53.570;9.964;2023-08-07T05:56:02;8.47;;;2.93;;
44816;SDS011;30529;53.570;9.964;2023-08-07T05:58:28;6.43;;;1.93;;
44816;SDS011;30529;53.570;9.964;2023-08-07T06:00:54;7.03;;;1.90;;
44816;SDS011;30529;53.570;9.964;2023-08-07T06:03:20;6.07;;;1.93;;
44816;SDS011;30529;53.570;9.964;2023-08-07T06:05:46;7.40;;;1.90;;
44816;SDS011;30529;53.570;9.964;2023-08-07T06:08:12;8.70;;;2.33;;
44816;SDS011;30529;53.570;9.964;2023-08-07T06:10:38;5.50;;;2.20;;
44816;SDS011;30529;53.570;9.964;2023-08-07T06:13:04;6.70;;;2.40;;
44816;SDS011;30529;53.570;9.964;2023-08-07T06:15:31;7.03;;;2.27;;
44816;SDS011;30529;53.570;9.964;2023-08-07T06:17:58;10.17;;;2.17;;
44816;SDS011;30529;53.570;9.964;2023-08-07T06:20:24;8.20;;;2.20;;
44816;SDS011;30529;53.570;9.964;2023-08-07T06:22:50;9.57;;;2.17;;
44816;SDS011;30529;53.570;9.964;2023-08-07T06:25:16;7.40;;;2.13;;
44816;SDS011;30529;53.570;9.964;2023-08-07T06:27:42;7.77;;;1.97;;
44816;SDS011;30529;53.570;9.964;2023-08-07T06:30:08;9.17;;;2.30;;
44816;SDS011;30529;53.570;9.964;2023-08-07T06:32:34;10.90;;;2.30;;
44816;SDS011;30529;53.570;9.964;2023-08-07T06:35:02;9.00;;;2.40;;
44816;SDS011;30529;53.570;9.964;2023-08-07T06:37:30;9.47;;;2.67;;
44816;SDS011;30529;53.570;9.964;2023-08-07T06:39:56;10.67;;;2.73;;
44816;SDS011;30529;53.570;9.964;2023-08-07T06:42:22;10.83;;;2.67;;
44816;SDS011;30529;53.570;9.964;2023-08-07T06:44:48;13.57;;;2.87;;
44816;SDS011;30529;53.570;9.964;2023-08-07T06:47:14;6.53;;;1.90;;
44816;SDS011;30529;53.570;9.964;2023-08-07T06:49:40;9.10;;;2.40;;
44816;SDS011;30529;53.570;9.964;2023-08-07T06:52:06;9.10;;;2.50;;
44816;SDS011;30529;53.570;9.964;2023-08-07T06:54:32;12.53;;;2.80;;
44816;SDS011;30529;53.570;9.964;2023-08-07T06:56:58;11.10;;;3.17;;
44816;SDS011;30529;53.570;9.964;2023-08-07T06:59:24;5.93;;;2.47;;
44816;SDS011;30529;53.570;9.964;2023-08-07T07:01:51;7.43;;;2.83;;
44816;SDS011;30529;53.570;9.964;2023-08-07T07:04:17;9.13;;;2.40;;
44816;SDS011;30529;53.570;9.964;2023-08-07T07:06:43;11.70;;;3.20;;
44816;SDS011;30529;53.570;9.964;2023-08-07T07:09:09;10.70;;;3.23;;
44816;SDS011;30529;53.570;9.964;2023-08-07T07:11:35;9.47;;;2.33;;
44816;SDS011;30529;53.570;9.964;2023-08-07T07:14:01;9.23;;;2.60;;
44816;SDS011;30529;53.570;9.964;2023-08-07T07:16:27;9.77;;;3.33;;
44816;SDS011;30529;53.570;9.964;2023-08-07T07:18:53;11.40;;;2.60;;
44816;SDS011;30529;53.570;9.964;2023-08-07T07:21:21;11.07;;;2.90;;
44816;SDS011;30529;53.570;9.964;2023-08-07T07:23:47;12.03;;;3.40;;
44816;SDS011;30529;53.570;9.964;2023-08-07T07:26:13;10.70;;;2.50;;
44816;SDS011;30529;53.570;9.964;2023-08-07T07:28:39;10.83;;;3.20;;
44816;SDS011;30529;53.570;9.964;2023-08-07T07:31:06;15.60;;;3.07;;
44816;SDS011;30529;53.570;9.964;2023-08-07T07:33:34;10.37;;;2.57;;
44816;SDS011;30529;53.570;9.964;2023-08-07T07:36:02;11.60;;;2.90;;
44816;SDS011;30529;53.570;9.964;2023-08-07T07:38:29;7.57;;;2.53;;
44816;SDS011;30529;53.570;9.964;2023-08-07T07:40:55;14.23;;;3.53;;
44816;SDS011;30529;53.570;9.964;2023-08-07T07:43:22;9.70;;;2.90;;
44816;SDS011;30529;53.570;9.964;2023-08-07T07:45:49;10.77;;;3.33;;
44816;SDS011;30529;53.570;9.964;2023-08-07T07:48:15;11.00;;;3.37;;
44816;SDS011;30529;53.570;9.964;2023-08-07T07:50:41;11.80;;;3.53;;
44816;SDS011;30529;53.570;9.964;2023-08-07T07:53:07;12.93;;;3.43;;
44816;SDS011;30529;53.570;9.964;2023-08-07T07:55:33;8.27;;;2.77;;
44816;SDS011;30529;53.570;9.964;2023-08-07T07:58:00;11.30;;;2.43;;
44816;SDS011;30529;53.570;9.964;2023-08-07T08:00:26;11.77;;;3.10;;
44816;SDS011;30529;53.570;9.964;2023-08-07T08:02:52;11.70;;;2.90;;
44816;SDS011;30529;53.570;9.964;2023-08-07T08:05:19;12.60;;;2.67;;
44816;SDS011;30529;53.570;9.964;2023-08-07T08:07:45;9.43;;;2.63;;
44816;SDS011;30529;53.570;9.964;2023-08-07T08:10:12;9.47;;;2.43;;
44816;SDS011;30529;53.570;9.964;2023-08-07T08:12:38;9.70;;;2.80;;
44816;SDS011;30529;53.570;9.964;2023-08-07T08:15:05;14.83;;;3.20;;
44816;SDS011;30529;53.570;9.964;2023-08-07T08:21:21;5.00;;;2.20;;
44816;SDS011;30529;53.570;9.964;2023-08-07T08:23:47;10.27;;;3.47;;
44816;SDS011;30529;53.570;9.964;2023-08-07T08:26:13;13.47;;;2.90;;
44816;SDS011;30529;53.570;9.964;2023-08-07T08:28:41;13.23;;;2.93;;
44816;SDS011;30529;53.570;9.964;2023-08-07T08:31:07;8.47;;;2.90;;
44816;SDS011;30529;53.570;9.964;2023-08-07T08:33:33;11.20;;;3.40;;
44816;SDS011;30529;53.570;9.964;2023-08-07T08:35:59;14.10;;;5.03;;
44816;SDS011;30529;53.570;9.964;2023-08-07T08:38:25;8.37;;;2.73;;
44816;SDS011;30529;53.570;9.964;2023-08-07T08:44:42;12.17;;;2.83;;
44816;SDS011;30529;53.570;9.964;2023-08-07T08:47:12;14.63;;;3.30;;
44816;SDS011;30529;53.570;9.964;2023-08-07T08:49:46;12.03;;;3.27;;
44816;SDS011;30529;53.570;9.964;2023-08-07T08:55:41;11.37;;;3.30;;
44816;SDS011;30529;53.570;9.964;2023-08-07T09:01:37;13.83;;;3.20;;
44816;SDS011;30529;53.570;9.964;2023-08-07T09:07:45;11.70;;;3.10;;
44816;SDS011;30529;53.570;9.964;2023-08-07T09:10:13;10.97;;;2.90;;
44816;SDS011;30529;53.570;9.964;2023-08-07T09:12:40;11.50;;;2.80;;
44816;SDS011;30529;53.570;9.964;2023-08-07T09:15:08;12.53;;;2.87;;
44816;SDS011;30529;53.570;9.964;2023-08-07T09:17:40;11.50;;;2.80;;
44816;SDS011;30529;53.570;9.964;2023-08-07T09:20:07;7.77;;;2.87;;
44816;SDS011;30529;53.570;9.964;2023-08-07T09:22:38;14.60;;;3.00;;
44816;SDS011;30529;53.570;9.964;2023-08-07T09:25:07;10.47;;;2.73;;
44816;SDS011;30529;53.570;9.964;2023-08-07T09:27:36;9.60;;;2.60;;
44816;SDS011;30529;53.570;9.964;2023-08-07T09:30:03;6.83;;;2.57;;
44816;SDS011;30529;53.570;9.964;2023-08-07T09:32:32;13.73;;;2.93;;
44816;SDS011;30529;53.570;9.964;2023-08-07T09:34:57;7.83;;;2.67;;
44816;SDS011;30529;53.570;9.964;2023-08-07T09:37:24;9.23;;;2.80;;
44816;SDS011;30529;53.570;9.964;2023-08-07T09:39:50;10.40;;;2.60;;
44816;SDS011;30529;53.570;9.964;2023-08-07T09:42:17;10.33;;;2.43;;
44816;SDS011;30529;53.570;9.964;2023-08-07T09:44:43;7.33;;;2.30;;
44816;SDS011;30529;53.570;9.964;2023-08-07T09:47:17;13.60;;;2.70;;
44816;SDS011;30529;53.570;9.964;2023-08-07T09:49:45;6.93;;;2.00;;
44816;SDS011;30529;53.570;9.964;2023-08-07T09:52:14;10.93;;;2.63;;
44816;SDS011;30529;53.570;9.964;2023-08-07T09:54:41;11.77;;;2.43;;
44816;SDS011;30529;53.570;9.964;2023-08-07T09:57:07;12.20;;;3.30;;
44816;SDS011;30529;53.570;9.964;2023-08-07T09:59:33;8.23;;;2.70;;
44816;SDS011;30529;53.570;9.964;2023-08-07T10:02:00;6.33;;;2.43;;
44816;SDS011;30529;53.570;9.964;2023-08-07T10:04:28;10.60;;;2.83;;
44816;SDS011;30529;53.570;9.964;2023-08-07T10:06:55;9.67;;;3.03;;
44816;SDS011;30529;53.570;9.964;2023-08-07T10:09:22;7.07;;;2.53;;
44816;SDS011;30529;53.570;9.964;2023-08-07T10:11:51;8.47;;;2.53;;
44816;SDS011;30529;53.570;9.964;2023-08-07T10:14:17;7.97;;;2.33;;
44816;SDS011;30529;53.570;9.964;2023-08-07T10:16:44;8.70;;;2.47;;
44816;SDS011;30529;53.570;9.964;2023-08-07T10:19:11;10.47;;;3.30;;
44816;SDS011;30529;53.570;9.964;2023-08-07T10:21:38;11.83;;;2.70;;
44816;SDS011;30529;53.570;9.964;2023-08-07T10:24:06;5.57;;;1.90;;
44816;SDS011;30529;53.570;9.964;2023-08-07T10:26:34;12.53;;;2.97;;
44816;SDS011;30529;53.570;9.964;2023-08-07T10:29:04;11.20;;;2.80;;
44816;SDS011;30529;53.570;9.964;2023-08-07T10:31:33;9.40;;;2.47;;
44816;SDS011;30529;53.570;9.964;2023-08-07T10:34:01;8.23;;;2.53;;
44816;SDS011;30529;53.570;9.964;2023-08-07T10:36:34;7.93;;;2.67;;
44816;SDS011;30529;53.570;9.964;2023-08-07T10:39:08;13.33;;;3.00;;
44816;SDS011;30529;53.570;9.964;2023-08-07T10:41:41;10.80;;;3.40;;
44816;SDS011;30529;53.570;9.964;2023-08-07T10:44:19;10.43;;;2.53;;
44816;SDS011;30529;53.570;9.964;2023-08-07T10:46:57;12.13;;;3.13;;
44816;SDS011;30529;53.570;9.964;2023-08-07T10:52:12;7.37;;;2.93;;
44816;SDS011;30529;53.570;9.964;2023-08-07T10:54:46;6.73;;;2.03;;
44816;SDS011;30529;53.570;9.964;2023-08-07T10:57:15;12.37;;;2.20;;
44816;SDS011;30529;53.570;9.964;2023-08-07T10:59:44;6.53;;;1.90;;
44816;SDS011;30529;53.570;9.964;2023-08-07T11:02:28;9.97;;;2.97;;
44816;SDS011;30529;53.570;9.964;2023-08-07T11:04:56;9.70;;;2.20;;
44816;SDS011;30529;53.570;9.964;2023-08-07T11:07:25;9.53;;;2.17;;
44816;SDS011;30529;53.570;9.964;2023-08-07T11:09:53;7.73;;;2.60;;
44816;SDS011;30529;53.570;9.964;2023-08-07T11:12:19;11.00;;;2.60;;
44816;SDS011;30529;53.570;9.964;2023-08-07T11:14:46;6.47;;;2.10;;
44816;SDS011;30529;53.570;9.964;2023-08-07T11:17:12;9.23;;;2.60;;
44816;SDS011;30529;53.570;9.964;2023-08-07T11:19:38;9.17;;;1.83;;
44816;SDS011;30529;53.570;9.964;2023-08-07T11:22:05;7.73;;;1.97;;
44816;SDS011;30529;53.570;9.964;2023-08-07T11:24:31;8.67;;;1.57;;
44816;SDS011;30529;53.570;9.964;2023-08-07T11:26:57;12.47;;;2.00;;
44816;SDS011;30529;53.570;9.964;2023-08-07T11:29:24;9.33;;;2.10;;
44816;SDS011;30529;53.570;9.964;2023-08-07T11:31:50;7.43;;;1.77;;
44816;SDS011;30529;53.570;9.964;2023-08-07T11:34:17;6.37;;;2.07;;
44816;SDS011;30529;53.570;9.964;2023-08-07T11:36:44;6.87;;;1.97;;
44816;SDS011;30529;53.570;9.964;2023-08-07T11:39:11;6.00;;;2.33;;
44816;SDS011;30529;53.570;9.964;2023-08-07T11:41:38;6.60;;;1.90;;
44816;SDS011;30529;53.570;9.964;2023-08-07T11:44:08;11.50;;;2.73;;
44816;SDS011;30529;53.570;9.964;2023-08-07T11:46:35;16.10;;;2.60;;
44816;SDS011;30529;53.570;9.964;2023-08-07T11:49:01;8.57;;;2.17;;
44816;SDS011;30529;53.570;9.964;2023-08-07T11:51:30;8.10;;;1.80;;
44816;SDS011;30529;53.570;9.964;2023-08-07T11:53:56;7.60;;;2.40;;
44816;SDS011;30529;53.570;9.964;2023-08-07T11:56:24;7.17;;;2.50;;
44816;SDS011;30529;53.570;9.964;2023-08-07T11:58:51;5.83;;;1.63;;
44816;SDS011;30529;53.570;9.964;2023-08-07T12:01:19;7.37;;;1.93;;
44816;SDS011;30529;53.570;9.964;2023-08-07T12:03:56;6.10;;;1.93;;
44816;SDS011;30529;53.570;9.964;2023-08-07T12:06:34;7.57;;;2.03;;
44816;SDS011;30529;53.570;9.964;2023-08-07T12:09:08;9.60;;;3.17;;
44816;SDS011;30529;53.570;9.964;2023-08-07T12:11:38;7.60;;;2.50;;
44816;SDS011;30529;53.570;9.964;2023-08-07T12:14:04;8.50;;;2.10;;
44816;SDS011;30529;53.570;9.964;2023-08-07T12:16:36;6.03;;;1.50;;
44816;SDS011;30529;53.570;9.964;2023-08-07T12:19:03;6.77;;;1.70;;
44816;SDS011;30529;53.570;9.964;2023-08-07T12:21:29;4.17;;;1.70;;
44816;SDS011;30529;53.570;9.964;2023-08-07T12:23:58;5.00;;;1.67;;
44816;SDS011;30529;53.570;9.964;2023-08-07T12:26:24;6.20;;;1.53;;
44816;SDS011;30529;53.570;9.964;2023-08-07T12:28:51;6.07;;;2.60;;
44816;SDS011;30529;53.570;9.964;2023-08-07T12:31:18;11.20;;;2.80;;
44816;SDS011;30529;53.570;9.964;2023-08-07T12:33:44;6.87;;;1.93;;
44816;SDS011;30529;53.570;9.964;2023-08-07T12:36:11;6.83;;;2.20;;
44816;SDS011;30529;53.570;9.964;2023-08-07T12:38:38;7.43;;;2.33;;
44816;SDS011;30529;53.570;9.964;2023-08-07T12:41:04;8.03;;;2.40;;
44816;SDS011;30529;53.570;9.964;2023-08-07T12:43:30;11.67;;;2.40;;
44816;SDS011;30529;53.570;9.964;2023-08-07T12:45:59;9.20;;;3.33;;
44816;SDS011;30529;53.570;9.964;2023-08-07T12:48:25;5.73;;;2.10;;
44816;SDS011;30529;53.570;9.964;2023-08-07T12:50:53;9.87;;;2.63;;
44816;SDS011;30529;53.570;9.964;2023-08-07T12:53:19;10.80;;;2.50;;
44816;SDS011;30529;53.570;9.964;2023-08-07T12:55:45;7.17;;;2.60;;
44816;SDS011;30529;53.570;9.964;2023-08-07T12:58:11;6.03;;;2.50;;
44816;SDS011;30529;53.570;9.964;2023-08-07T13:00:37;9.33;;;2.53;;
44816;SDS011;30529;53.570;9.964;2023-08-07T13:03:03;9.03;;;2.67;;
44816;SDS011;30529;53.570;9.964;2023-08-07T13:05:29;8.47;;;2.43;;
44816;SDS011;30529;53.570;9.964;2023-08-07T13:07:56;8.93;;;2.70;;
44816;SDS011;30529;53.570;9.964;2023-08-07T13:10:24;11.87;;;2.40;;
44816;SDS011;30529;53.570;9.964;2023-08-07T13:12:53;7.37;;;2.17;;
44816;SDS011;30529;53.570;9.964;2023-08-07T13:15:20;7.77;;;1.83;;
44816;SDS011;30529;53.570;9.964;2023-08-07T13:17:46;8.40;;;2.70;;
44816;SDS011;30529;53.570;9.964;2023-08-07T13:20:12;7.20;;;2.10;;
44816;SDS011;30529;53.570;9.964;2023-08-07T13:22:42;6.63;;;2.67;;
44816;SDS011;30529;53.570;9.964;2023-08-07T13:25:11;9.67;;;2.63;;
44816;SDS011;30529;53.570;9.964;2023-08-07T13:27:38;10.90;;;2.87;;
44816;SDS011;30529;53.570;9.964;2023-08-07T13:30:05;9.07;;;3.10;;
44816;SDS011;30529;53.570;9.964;2023-08-07T13:32:32;10.07;;;2.37;;
44816;SDS011;30529;53.570;9.964;2023-08-07T13:34:58;8.70;;;2.30;;
44816;SDS011;30529;53.570;9.964;2023-08-07T13:37:24;13.57;;;2.60;;
44816;SDS011;30529;53.570;9.964;2023-08-07T13:39:50;9.80;;;2.37;;
44816;SDS011;30529;53.570;9.964;2023-08-07T13:42:18;11.17;;;2.60;;
44816;SDS011;30529;53.570;9.964;2023-08-07T13:44:45;9.53;;;2.70;;
44816;SDS011;30529;53.570;9.964;2023-08-07T13:47:11;9.63;;;2.90;;
44816;SDS011;30529;53.570;9.964;2023-08-07T13:49:37;11.13;;;2.47;;
44816;SDS011;30529;53.570;9.964;2023-08-07T13:52:04;12.73;;;3.07;;
44816;SDS011;30529;53.570;9.964;2023-08-07T13:54:30;14.40;;;2.87;;
44816;SDS011;30529;53.570;9.964;2023-08-07T13:56:56;7.93;;;2.47;;
44816;SDS011;30529;53.570;9.964;2023-08-07T13:59:22;10.20;;;2.97;;
44816;SDS011;30529;53.570;9.964;2023-08-07T14:01:48;9.07;;;2.80;;
44816;SDS011;30529;53.570;9.964;2023-08-07T14:04:15;6.70;;;2.17;;
44816;SDS011;30529;53.570;9.964;2023-08-07T14:06:41;7.03;;;2.37;;
44816;SDS011;30529;53.570;9.964;2023-08-07T14:09:10;8.17;;;2.50;;
44816;SDS011;30529;53.570;9.964;2023-08-07T14:11:37;9.73;;;3.17;;
44816;SDS011;30529;53.570;9.964;2023-08-07T14:14:03;13.17;;;3.33;;
44816;SDS011;30529;53.570;9.964;2023-08-07T14:16:29;7.10;;;2.30;;
44816;SDS011;30529;53.570;9.964;2023-08-07T14:18:57;7.37;;;2.17;;
44816;SDS011;30529;53.570;9.964;2023-08-07T14:21:23;9.33;;;3.00;;
44816;SDS011;30529;53.570;9.964;2023-08-07T14:23:50;11.63;;;2.50;;
44816;SDS011;30529;53.570;9.964;2023-08-07T14:26:16;7.37;;;2.20;;
44816;SDS011;30529;53.570;9.964;2023-08-07T14:28:44;10.27;;;2.87;;
44816;SDS011;30529;53.570;9.964;2023-08-07T14:31:10;8.07;;;2.50;;
44816;SDS011;30529;53.570;9.964;2023-08-07T14:33:37;6.93;;;2.63;;
44816;SDS011;30529;53.570;9.964;2023-08-07T14:36:03;8.77;;;2.70;;
44816;SDS011;30529;53.570;9.964;2023-08-07T14:38:29;12.10;;;2.50;;
44816;SDS011;30529;53.570;9.964;2023-08-07T14:40:55;12.50;;;3.20;;
44816;SDS011;30529;53.570;9.964;2023-08-07T14:43:22;16.57;;;2.97;;
44816;SDS011;30529;53.570;9.964;2023-08-07T14:45:49;9.77;;;2.17;;
44816;SDS011;30529;53.570;9.964;2023-08-07T14:48:15;7.67;;;2.80;;
44816;SDS011;30529;53.570;9.964;2023-08-07T14:50:41;9.10;;;2.40;;
44816;SDS011;30529;53.570;9.964;2023-08-07T14:53:07;13.57;;;2.57;;
44816;SDS011;30529;53.570;9.964;2023-08-07T14:55:33;7.87;;;2.23;;
44816;SDS011;30529;53.570;9.964;2023-08-07T14:58:00;7.83;;;2.77;;
44816;SDS011;30529;53.570;9.964;2023-08-07T15:00:26;10.10;;;2.60;;
44816;SDS011;30529;53.570;9.964;2023-08-07T15:02:52;8.50;;;2.63;;
44816;SDS011;30529;53.570;9.964;2023-08-07T15:05:18;6.80;;;2.60;;
44816;SDS011;30529;53.570;9.964;2023-08-07T15:07:44;6.47;;;2.30;;
44816;SDS011;30529;53.570;9.964;2023-08-07T15:10:11;10.07;;;2.43;;
44816;SDS011;30529;53.570;9.964;2023-08-07T15:12:37;7.70;;;2.93;;
44816;SDS011;30529;53.570;9.964;2023-08-07T15:15:03;8.67;;;2.80;;
44816;SDS011;30529;53.570;9.964;2023-08-07T15:17:31;6.57;;;2.97;;